Time;durP1;ratioP1;P1;durP2;ratioP2;P2;SDS_P1;SDS_P2;PMS_P1;PMS_P2;Temp;Humidity;BMP_temperature;BMP_pressure;BME280_temperature;BME280_humidity;BME280_pressure;Samples;Min_cycle;Max_cycle;Signal;HPM_P1;HPM_P2
2023/01/28 00:01:09;;;;;;;5.57;3.88;;;-0.20;99.90;;;;;;5056637;28;20122;-62
2023/01/28 00:03:35;;;;;;;6.95;3.85;;;-0.20;99.90;;;;;;5058637;28;20048;-63
2023/01/28 00:06:06;;;;;;;7.43;4.07;;;-0.10;99.90;;;;;;5057982;28;20048;-62
2023/01/28 00:08:32;;;;;;;9.60;4.40;;;-0.20;99.90;;;;;;5056990;28;20033;-63
2023/01/28 00:11:03;;;;;;;6.90;4.25;;;-0.10;99.90;;;;;;5059862;28;20032;-63
2023/01/28 00:13:29;;;;;;;7.85;4.00;;;-0.10;99.90;;;;;;5058531;28;20078;-63
2023/01/28 00:15:56;;;;;;;9.63;4.13;;;-0.10;99.90;;;;;;5057987;28;20048;-63
2023/01/28 00:18:22;;;;;;;7.18;4.38;;;-0.20;99.90;;;;;;5047975;28;20044;-63
2023/01/28 00:21:02;;;;;;;6.28;3.88;;;-0.30;99.90;;;;;;5043902;28;20036;-63
2023/01/28 00:23:30;;;;;;;8.30;4.05;;;-0.20;99.90;;;;;;5045140;28;20447;-63
2023/01/28 00:26:00;;;;;;;6.22;4.00;;;-0.30;99.90;;;;;;5047525;28;20052;-63
2023/01/28 00:28:26;;;;;;;9.57;4.90;;;-0.30;99.90;;;;;;5045857;28;20064;-63
2023/01/28 00:30:51;;;;;;;5.90;4.25;;;-0.30;99.90;;;;;;5046184;28;20044;-63
2023/01/28 00:33:17;;;;;;;7.88;4.43;;;-0.30;99.90;;;;;;5042314;28;20025;-63
2023/01/28 00:35:43;;;;;;;13.23;5.10;;;-0.30;99.90;;;;;;5062012;28;20049;-63
2023/01/28 00:38:09;;;;;;;10.25;5.20;;;-0.30;99.90;;;;;;5046166;28;20400;-63
2023/01/28 00:40:35;;;;;;;10.05;4.40;;;-0.40;99.90;;;;;;5047027;28;20186;-63
2023/01/28 00:43:01;;;;;;;13.32;5.05;;;-0.40;99.90;;;;;;5045370;28;20123;-63
2023/01/28 00:45:26;;;;;;;6.88;4.00;;;-0.40;99.90;;;;;;5043787;28;20087;-63
2023/01/28 00:47:52;;;;;;;5.20;3.90;;;-0.40;99.90;;;;;;5044302;28;20044;-64
2023/01/28 00:50:20;;;;;;;9.55;3.92;;;-0.40;99.90;;;;;;5045665;28;20045;-64
2023/01/28 00:52:46;;;;;;;7.00;4.32;;;-0.30;99.90;;;;;;5043657;28;20079;-63
2023/01/28 00:55:12;;;;;;;8.00;3.67;;;-0.30;99.90;;;;;;5043145;28;20045;-63
2023/01/28 00:57:38;;;;;;;6.95;3.75;;;-0.40;99.90;;;;;;5042138;28;20257;-63
2023/01/28 01:00:05;;;;;;;7.15;3.75;;;-0.40;99.90;;;;;;5042999;28;20520;-62
2023/01/28 01:02:31;;;;;;;6.32;4.47;;;-0.30;99.90;;;;;;5042585;28;20182;-63
2023/01/28 01:05:00;;;;;;;8.13;3.83;;;-0.30;99.90;;;;;;5046474;28;20132;-63
2023/01/28 01:07:40;;;;;;;8.85;4.03;;;-0.30;99.90;;;;;;5045710;28;20041;-63
2023/01/28 01:10:11;;;;;;;8.85;4.05;;;-0.40;99.90;;;;;;5044219;28;20045;-63
2023/01/28 01:12:38;;;;;;;8.80;4.25;;;-0.40;99.90;;;;;;5043401;28;20068;-64
2023/01/28 01:15:07;;;;;;;8.98;4.45;;;-0.50;99.90;;;;;;5043580;28;20494;-63
2023/01/28 01:17:33;;;;;;;8.52;4.18;;;-0.50;99.90;;;;;;5045995;28;20488;-63
2023/01/28 01:19:59;;;;;;;5.82;3.67;;;-0.60;99.90;;;;;;5043914;28;20039;-63
2023/01/28 01:22:24;;;;;;;5.93;3.53;;;-0.50;99.90;;;;;;5043794;28;20028;-63
2023/01/28 01:24:50;;;;;;;6.85;3.67;;;-0.40;99.90;;;;;;5044778;28;20033;-63
2023/01/28 01:27:16;;;;;;;5.43;3.58;;;-0.40;99.90;;;;;;5044945;28;20178;-63
2023/01/28 01:29:41;;;;;;;7.07;2.97;;;-0.40;99.90;;;;;;5045223;28;20098;-63
2023/01/28 01:32:07;;;;;;;6.07;3.50;;;-0.30;99.90;;;;;;5043370;28;20041;-62
2023/01/28 01:34:32;;;;;;;5.13;3.47;;;-0.30;99.90;;;;;;5045212;28;20041;-65
2023/01/28 01:36:58;;;;;;;4.35;3.13;;;-0.30;99.90;;;;;;5046119;28;20049;-66
2023/01/28 01:39:24;;;;;;;6.32;3.63;;;-0.30;99.90;;;;;;5045837;28;20048;-65
2023/01/28 01:41:49;;;;;;;6.18;3.65;;;-0.30;99.90;;;;;;5042994;28;20040;-63
2023/01/28 01:45:06;;;;;;;10.02;3.58;;;-0.40;99.90;;;;;;5042755;28;20029;-63
2023/01/28 01:47:50;;;;;;;4.50;3.10;;;-0.30;99.90;;;;;;5010525;28;20078;-63
2023/01/28 01:50:19;;;;;;;7.22;3.03;;;-0.30;99.90;;;;;;5041407;28;20538;-63
2023/01/28 01:52:48;;;;;;;4.10;2.95;;;-0.30;99.90;;;;;;5045361;28;20040;-63
2023/01/28 01:55:18;;;;;;;4.88;2.92;;;-0.20;99.90;;;;;;5041363;28;20060;-63
2023/01/28 01:57:45;;;;;;;4.72;2.97;;;-0.40;99.90;;;;;;5043924;28;20133;-63
2023/01/28 02:00:10;;;;;;;6.65;2.70;;;-0.40;99.90;;;;;;5045737;28;20033;-62
2023/01/28 02:02:40;;;;;;;7.80;3.03;;;-0.30;99.90;;;;;;5042817;28;20411;-62
2023/01/28 02:05:08;;;;;;;3.63;2.60;;;-0.40;99.90;;;;;;5043743;28;20124;-63
2023/01/28 02:07:35;;;;;;;4.30;2.58;;;-0.40;99.90;;;;;;5041851;28;20045;-63
2023/01/28 02:10:00;;;;;;;4.15;2.33;;;-0.50;99.90;;;;;;5045000;28;20037;-62
2023/01/28 02:12:34;;;;;;;6.95;2.55;;;-0.40;99.90;;;;;;5040978;28;20059;-62
2023/01/28 02:15:07;;;;;;;3.58;2.33;;;-0.40;99.90;;;;;;5042966;28;20427;-60
2023/01/28 02:17:34;;;;;;;2.35;1.83;;;-0.30;99.90;;;;;;5043674;28;20037;-62
2023/01/28 02:20:12;;;;;;;1.98;1.70;;;-0.40;99.90;;;;;;5043631;28;20037;-63
2023/01/28 02:22:49;;;;;;;3.17;2.03;;;-0.30;99.90;;;;;;5042252;28;20056;-63
2023/01/28 02:25:44;;;;;;;4.30;2.15;;;-0.30;99.90;;;;;;5042901;28;20060;-63
2023/01/28 02:28:30;;;;;;;4.30;2.65;;;-0.40;99.90;;;;;;5042607;28;20063;-63
2023/01/28 02:31:07;;;;;;;5.60;2.30;;;-0.40;99.90;;;;;;5043588;28;20080;-63
2023/01/28 02:33:42;;;;;;;4.47;1.98;;;-0.40;99.90;;;;;;5041944;28;20263;-63
2023/01/28 02:36:36;;;;;;;4.28;2.97;;;-0.40;99.90;;;;;;5041965;28;20037;-63
2023/01/28 02:39:11;;;;;;;4.88;2.30;;;-0.40;99.90;;;;;;5041082;28;20052;-63
2023/01/28 02:41:43;;;;;;;4.97;2.05;;;-0.40;99.90;;;;;;5072799;28;20045;-63
2023/01/28 02:44:08;;;;;;;4.40;2.88;;;-0.30;99.90;;;;;;5043023;28;20044;-63
2023/01/28 02:49:22;;;;;;;3.47;2.25;;;-0.40;99.90;;;;;;5043951;28;20033;-63
2023/01/28 02:55:20;;;;;;;3.08;1.83;;;-0.40;99.90;;;;;;5041198;28;20060;-62
2023/01/28 02:57:59;;;;;;;2.90;2.00;;;-0.50;99.90;;;;;;5043835;28;20041;-61
2023/01/28 03:00:39;;;;;;;4.68;2.53;;;-0.50;99.90;;;;;;5043362;28;20505;-63
2023/01/28 03:03:10;;;;;;;3.17;2.20;;;-0.60;99.90;;;;;;5043263;28;20504;-63
2023/01/28 03:05:40;;;;;;;4.05;2.30;;;-0.70;99.90;;;;;;5043099;28;20033;-63
2023/01/28 03:09:21;;;;;;;2.70;2.13;;;-0.70;99.90;;;;;;5041649;28;20055;-63
2023/01/28 03:38:52;;;;;;;3.20;1.98;;;-0.70;99.90;;;;;;5042356;28;20069;-62
2023/01/28 03:41:23;;;;;;;3.30;1.83;;;-0.80;99.90;;;;;;5041719;28;20068;-63
2023/01/28 03:43:50;;;;;;;6.43;2.63;;;-0.70;99.90;;;;;;5043825;28;20099;-63
2023/01/28 03:46:17;;;;;;;3.30;2.17;;;-0.70;99.90;;;;;;5041239;28;20048;-62
2023/01/28 03:48:43;;;;;;;3.22;2.50;;;-0.60;99.90;;;;;;5041057;28;20049;-63
2023/01/28 03:51:09;;;;;;;4.72;3.35;;;-0.70;99.90;;;;;;5039620;28;20033;-63
2023/01/28 03:53:35;;;;;;;6.45;4.90;;;-0.70;99.90;;;;;;5041901;28;20083;-63
2023/01/28 03:56:00;;;;;;;7.57;4.07;;;-0.70;99.90;;;;;;5045552;28;20808;-62
2023/01/28 03:58:51;;;;;;;6.28;4.28;;;-0.70;99.90;;;;;;5047044;28;20044;-62
2023/01/28 04:01:12;;;;;;;7.22;4.57;;;-0.70;99.90;;;;;;5045194;28;20172;-63
2023/01/28 04:03:38;;;;;;;5.60;4.03;;;-0.80;99.90;;;;;;5046500;28;20519;-63
2023/01/28 04:06:06;;;;;;;6.68;4.18;;;-0.80;99.90;;;;;;5046734;28;20040;-63
2023/01/28 04:08:31;;;;;;;9.05;4.80;;;-0.80;99.90;;;;;;5043684;28;20037;-63
2023/01/28 04:10:59;;;;;;;8.02;4.63;;;-0.80;99.90;;;;;;5047368;28;20554;-64
2023/01/28 04:13:24;;;;;;;6.93;3.75;;;-0.80;99.90;;;;;;5045895;28;20103;-64
2023/01/28 04:15:50;;;;;;;7.18;4.22;;;-0.70;99.90;;;;;;5046998;28;20048;-62
2023/01/28 04:18:16;;;;;;;5.15;3.72;;;-0.80;99.90;;;;;;5047638;28;20047;-63
2023/01/28 04:20:41;;;;;;;7.97;4.95;;;-0.70;99.90;;;;;;5044168;28;20070;-63
2023/01/28 04:23:07;;;;;;;7.60;4.40;;;-0.80;99.90;;;;;;5044376;28;20029;-64
2023/01/28 04:25:33;;;;;;;6.78;4.13;;;-0.90;99.90;;;;;;5047674;28;20044;-64
2023/01/28 04:27:59;;;;;;;5.93;3.92;;;-1.00;99.90;;;;;;5045010;28;20405;-63
2023/01/28 04:30:25;;;;;;;4.63;3.65;;;-1.10;99.90;;;;;;5044845;28;20565;-63
2023/01/28 04:32:51;;;;;;;6.38;4.57;;;-1.10;99.90;;;;;;5047371;28;20036;-62
2023/01/28 04:35:17;;;;;;;8.18;4.78;;;-1.10;99.90;;;;;;5044699;28;20566;-63
2023/01/28 04:37:43;;;;;;;9.02;4.78;;;-1.10;99.90;;;;;;5044995;28;20079;-63
2023/01/28 04:40:11;;;;;;;10.65;5.05;;;-1.00;99.90;;;;;;5045506;28;20069;-63
2023/01/28 04:42:36;;;;;;;8.07;4.60;;;-0.90;99.90;;;;;;5046226;28;20044;-63
2023/01/28 04:45:02;;;;;;;5.97;4.30;;;-0.90;99.90;;;;;;5043576;28;20039;-63
2023/01/28 04:47:28;;;;;;;8.10;4.32;;;-0.90;99.90;;;;;;5044400;28;20033;-63
2023/01/28 04:49:53;;;;;;;7.20;4.70;;;-0.90;99.90;;;;;;5045207;28;20403;-63
2023/01/28 04:52:19;;;;;;;8.75;4.38;;;-1.00;99.90;;;;;;5044247;28;20033;-63
2023/01/28 04:54:45;;;;;;;5.95;4.18;;;-1.00;99.90;;;;;;5045418;28;20047;-63
2023/01/28 04:57:10;;;;;;;8.00;3.97;;;-1.10;99.90;;;;;;5045892;28;20115;-63
2023/01/28 04:59:36;;;;;;;6.80;3.95;;;-1.10;99.90;;;;;;5044844;28;20032;-63
2023/01/28 05:02:02;;;;;;;5.25;3.75;;;-1.00;99.90;;;;;;5043389;28;20033;-64
2023/01/28 05:04:27;;;;;;;5.95;4.28;;;-1.10;99.90;;;;;;5044963;28;20071;-63
2023/01/28 05:06:53;;;;;;;5.40;4.07;;;-1.20;99.90;;;;;;5045775;28;20073;-63
2023/01/28 05:09:19;;;;;;;5.18;3.95;;;-1.20;99.90;;;;;;5045845;28;20041;-63
2023/01/28 05:11:44;;;;;;;7.47;4.85;;;-1.20;99.90;;;;;;5047076;28;20037;-63
2023/01/28 05:14:10;;;;;;;7.72;4.03;;;-1.20;99.90;;;;;;5045257;28;20103;-63
2023/01/28 05:16:35;;;;;;;11.52;4.40;;;-1.10;99.90;;;;;;5044043;28;20033;-63
2023/01/28 05:19:01;;;;;;;5.93;4.20;;;-1.10;99.90;;;;;;5045059;28;20041;-64
2023/01/28 05:21:27;;;;;;;8.70;3.80;;;-1.10;99.90;;;;;;5044439;28;20041;-63
2023/01/28 05:23:53;;;;;;;7.35;4.15;;;-1.00;99.90;;;;;;5044336;28;20037;-63
2023/01/28 05:26:19;;;;;;;5.13;4.10;;;-1.00;99.90;;;;;;5045055;28;20061;-64
2023/01/28 05:28:45;;;;;;;7.20;4.90;;;-1.00;99.90;;;;;;5046317;28;20045;-65
2023/01/28 05:31:10;;;;;;;5.32;4.18;;;-1.00;99.90;;;;;;5044271;28;20029;-64
2023/01/28 05:33:37;;;;;;;6.95;4.80;;;-1.00;99.90;;;;;;5042631;28;20033;-63
2023/01/28 05:36:03;;;;;;;6.15;4.70;;;-1.10;99.90;;;;;;5045883;28;20037;-63
2023/01/28 05:38:29;;;;;;;5.85;4.40;;;-1.10;99.90;;;;;;5044811;28;20116;-63
2023/01/28 05:40:54;;;;;;;5.18;3.92;;;-1.10;99.90;;;;;;5042474;28;20129;-62
2023/01/28 05:43:20;;;;;;;11.80;4.93;;;-1.20;99.90;;;;;;5045810;28;20456;-63
2023/01/28 05:45:46;;;;;;;6.80;4.38;;;-1.00;99.90;;;;;;5042487;28;20405;-63
2023/01/28 05:48:13;;;;;;;6.68;4.85;;;-1.00;99.90;;;;;;5043589;28;20056;-63
2023/01/28 05:50:38;;;;;;;9.40;4.68;;;-1.10;99.90;;;;;;5041343;28;20131;-63
2023/01/28 05:53:08;;;;;;;7.18;5.20;;;-1.10;99.90;;;;;;5043496;28;20124;-63
2023/01/28 05:55:34;;;;;;;8.32;4.63;;;-1.00;99.90;;;;;;5043686;28;20043;-63
2023/01/28 05:57:59;;;;;;;10.98;5.40;;;-1.10;99.90;;;;;;5045220;28;20037;-63
2023/01/28 06:00:25;;;;;;;6.70;4.55;;;-1.10;99.90;;;;;;5044893;28;20040;-64
2023/01/28 06:02:51;;;;;;;7.30;4.50;;;-1.10;99.90;;;;;;5042987;28;20159;-64
2023/01/28 06:05:17;;;;;;;7.43;4.72;;;-1.10;99.90;;;;;;5042531;28;20037;-63
2023/01/28 06:07:46;;;;;;;10.18;4.50;;;-1.00;99.90;;;;;;5045836;28;20106;-63
2023/01/28 06:10:12;;;;;;;9.93;5.03;;;-1.10;99.90;;;;;;5041996;28;20118;-63
2023/01/28 06:12:38;;;;;;;11.88;5.18;;;-1.10;99.90;;;;;;5045180;28;20050;-63
2023/01/28 06:15:04;;;;;;;8.00;5.15;;;-1.10;99.90;;;;;;5043362;28;21283;-62
2023/01/28 06:17:30;;;;;;;5.70;4.28;;;-1.20;99.90;;;;;;5042693;28;20045;-64
2023/01/28 06:19:55;;;;;;;5.88;4.60;;;-1.20;99.90;;;;;;5041429;28;20041;-63
2023/01/28 06:22:21;;;;;;;9.35;5.55;;;-1.10;99.90;;;;;;5043754;28;20045;-64
2023/01/28 06:24:47;;;;;;;7.85;5.05;;;-1.30;99.90;;;;;;5044658;28;20098;-63
2023/01/28 06:27:12;;;;;;;6.90;4.50;;;-1.20;99.90;;;;;;5045588;28;20475;-63
2023/01/28 06:29:38;;;;;;;5.60;3.70;;;-1.20;99.90;;;;;;5041962;28;20598;-63
2023/01/28 06:32:04;;;;;;;15.10;4.15;;;-1.10;99.90;;;;;;5041703;28;20075;-63
2023/01/28 06:34:30;;;;;;;4.65;3.75;;;-1.10;99.90;;;;;;5041182;28;20090;-63
2023/01/28 06:36:56;;;;;;;5.88;4.07;;;-1.10;99.90;;;;;;5039535;28;20048;-63
2023/01/28 06:39:22;;;;;;;7.00;4.20;;;-1.10;99.90;;;;;;5043326;28;20037;-63
2023/01/28 06:41:48;;;;;;;6.07;3.35;;;-1.10;99.90;;;;;;5044415;28;20123;-62
2023/01/28 06:44:14;;;;;;;3.72;3.20;;;-1.20;99.90;;;;;;5042382;28;20090;-62
2023/01/28 06:46:40;;;;;;;5.93;3.90;;;-1.20;99.90;;;;;;5042164;28;20053;-62
2023/01/28 06:49:05;;;;;;;8.80;3.67;;;-1.30;99.90;;;;;;5041411;28;20797;-63
2023/01/28 06:51:31;;;;;;;4.53;3.40;;;-1.30;99.90;;;;;;5040771;28;20055;-64
2023/01/28 06:53:56;;;;;;;5.28;3.20;;;-1.20;99.90;;;;;;5042780;28;20039;-64
2023/01/28 06:56:22;;;;;;;7.90;3.70;;;-1.20;99.90;;;;;;5040990;28;20048;-62
2023/01/28 06:58:48;;;;;;;5.53;3.75;;;-1.10;99.90;;;;;;5037284;28;20515;-63
2023/01/28 07:01:13;;;;;;;5.40;3.70;;;-1.10;99.90;;;;;;5037727;28;20103;-64
2023/01/28 07:03:39;;;;;;;5.60;3.72;;;-1.10;99.90;;;;;;5043518;28;20531;-64
2023/01/28 07:06:05;;;;;;;4.47;3.03;;;-1.10;99.90;;;;;;5049050;28;20037;-64
2023/01/28 07:08:30;;;;;;;10.00;3.33;;;-1.10;99.90;;;;;;5044825;28;20033;-63
2023/01/28 07:10:56;;;;;;;5.75;3.33;;;-1.00;99.90;;;;;;5045328;28;20079;-63
2023/01/28 07:13:22;;;;;;;5.80;3.53;;;-1.10;99.90;;;;;;5039993;28;20033;-63
2023/01/28 07:15:48;;;;;;;4.15;3.33;;;-1.10;99.90;;;;;;5045805;28;20036;-63
2023/01/28 07:18:14;;;;;;;9.00;3.50;;;-1.00;99.90;;;;;;5042480;28;20930;-63
2023/01/28 07:20:39;;;;;;;8.07;3.13;;;-1.00;99.90;;;;;;5043710;28;20124;-64
2023/01/28 07:23:05;;;;;;;10.00;3.47;;;-1.10;99.90;;;;;;5044630;28;20046;-64
2023/01/28 07:25:31;;;;;;;7.78;3.75;;;-1.10;99.90;;;;;;5042219;28;21999;-63
2023/01/28 07:27:56;;;;;;;6.95;3.75;;;-1.10;99.90;;;;;;5045777;28;20045;-63
2023/01/28 07:30:23;;;;;;;4.93;3.22;;;-1.00;99.90;;;;;;5047837;28;20044;-64
2023/01/28 07:32:53;;;;;;;5.13;3.10;;;-1.10;99.90;;;;;;5049318;28;20032;-64
2023/01/28 07:35:19;;;;;;;5.38;3.67;;;-1.10;99.90;;;;;;5048872;28;20052;-63
2023/01/28 07:37:54;;;;;;;6.63;3.17;;;-1.00;99.90;;;;;;5048487;28;20152;-65
2023/01/28 07:40:19;;;;;;;9.65;3.15;;;-1.00;99.90;;;;;;5049424;28;20033;-63
2023/01/28 07:42:45;;;;;;;5.53;3.92;;;-1.10;99.90;;;;;;5050464;28;20041;-63
2023/01/28 07:45:11;;;;;;;3.83;3.28;;;-1.20;99.90;;;;;;5048896;28;20096;-64
2023/01/28 07:47:36;;;;;;;4.97;3.75;;;-1.20;99.90;;;;;;5047279;28;20087;-64
2023/01/28 07:50:02;;;;;;;6.85;3.85;;;-1.20;99.90;;;;;;5050646;28;20032;-63
2023/01/28 07:52:28;;;;;;;4.10;3.15;;;-1.10;99.90;;;;;;5049034;28;20563;-63
2023/01/28 07:54:53;;;;;;;5.65;3.83;;;-1.00;99.90;;;;;;5051071;28;20044;-63
2023/01/28 07:57:21;;;;;;;9.60;3.92;;;-1.00;99.90;;;;;;5050003;28;20037;-63
2023/01/28 07:59:50;;;;;;;7.88;3.17;;;-1.00;99.90;;;;;;5049529;28;20090;-63
2023/01/28 08:02:17;;;;;;;5.90;3.45;;;-0.90;99.90;;;;;;5048524;28;20044;-64
2023/01/28 08:04:43;;;;;;;8.23;3.90;;;-0.90;99.90;;;;;;5047589;28;20557;-62
2023/01/28 08:07:09;;;;;;;6.53;3.90;;;-0.90;99.90;;;;;;5048191;28;21333;-64
2023/01/28 08:09:34;;;;;;;5.43;3.70;;;-1.00;99.90;;;;;;5048154;28;20029;-64
2023/01/28 08:12:03;;;;;;;5.22;3.83;;;-1.10;99.90;;;;;;5050087;28;20040;-61
2023/01/28 08:14:29;;;;;;;6.07;3.90;;;-1.10;99.90;;;;;;5050289;28;20048;-62
2023/01/28 08:16:56;;;;;;;8.73;3.85;;;-1.10;99.90;;;;;;5049593;28;20040;-62
2023/01/28 08:19:21;;;;;;;5.78;3.50;;;-1.10;99.90;;;;;;5045581;28;20048;-64
2023/01/28 08:21:47;;;;;;;5.57;3.50;;;-1.10;99.90;;;;;;5046228;28;20037;-62
2023/01/28 08:24:13;;;;;;;7.32;3.67;;;-1.00;99.90;;;;;;5048135;28;20045;-63
2023/01/28 08:26:38;;;;;;;5.45;3.60;;;-1.10;99.90;;;;;;5049131;28;20059;-64
2023/01/28 08:29:04;;;;;;;5.78;3.60;;;-1.10;99.90;;;;;;5046496;28;20087;-64
2023/01/28 08:31:30;;;;;;;8.82;4.13;;;-1.00;99.90;;;;;;5046251;28;20033;-64
2023/01/28 08:33:56;;;;;;;8.65;5.88;;;-1.00;99.90;;;;;;5047268;28;20029;-64
2023/01/28 08:36:22;;;;;;;7.00;4.07;;;-1.00;99.90;;;;;;5048709;28;21600;-64
2023/01/28 08:38:54;;;;;;;6.88;3.58;;;-1.00;99.90;;;;;;5046642;28;20045;-64
2023/01/28 08:41:23;;;;;;;7.22;4.10;;;-1.10;99.90;;;;;;5047641;28;20041;-64
2023/01/28 08:43:49;;;;;;;6.28;3.53;;;-1.20;99.90;;;;;;5048682;28;20040;-64
2023/01/28 08:46:15;;;;;;;6.63;3.50;;;-1.10;99.90;;;;;;5047422;28;20033;-64
2023/01/28 08:48:41;;;;;;;9.45;3.58;;;-1.20;99.90;;;;;;5048192;28;20099;-63
2023/01/28 08:51:07;;;;;;;7.75;3.75;;;-1.10;99.90;;;;;;5049069;28;20094;-64
2023/01/28 08:53:33;;;;;;;4.95;3.00;;;-1.00;99.90;;;;;;5048383;28;20063;-64
2023/01/28 08:55:58;;;;;;;4.53;3.25;;;-1.00;99.90;;;;;;5050307;28;20069;-65
2023/01/28 08:58:24;;;;;;;7.13;4.15;;;-1.10;99.90;;;;;;5049950;28;20079;-64
2023/01/28 09:00:50;;;;;;;6.78;3.42;;;-1.00;99.90;;;;;;5050001;28;20037;-63
2023/01/28 09:03:16;;;;;;;7.20;3.38;;;-1.00;99.90;;;;;;5076966;28;20106;-65
2023/01/28 09:05:42;;;;;;;5.38;3.80;;;-1.00;99.90;;;;;;5047787;28;20041;-63
2023/01/28 09:08:13;;;;;;;5.75;3.80;;;-0.90;99.90;;;;;;5060368;28;20063;-64
2023/01/28 09:10:40;;;;;;;7.20;4.05;;;-0.90;99.90;;;;;;5047026;28;20383;-63
2023/01/28 09:13:14;;;;;;;6.95;3.97;;;-0.90;99.90;;;;;;5047042;28;20040;-63
2023/01/28 09:15:40;;;;;;;4.47;3.53;;;-0.70;99.90;;;;;;5046410;28;20065;-62
2023/01/28 09:18:06;;;;;;;4.13;3.45;;;-0.70;99.90;;;;;;5046634;28;20065;-63
2023/01/28 09:20:32;;;;;;;4.70;3.00;;;-0.60;99.90;;;;;;5046111;28;20064;-63
2023/01/28 09:22:59;;;;;;;8.27;4.22;;;-0.60;99.90;;;;;;5045969;28;20037;-63
2023/01/28 09:25:24;;;;;;;5.97;2.83;;;-0.60;99.90;;;;;;5045851;28;20045;-63
2023/01/28 09:27:50;;;;;;;5.75;2.85;;;-0.50;99.90;;;;;;5046815;28;20037;-62
2023/01/28 09:30:16;;;;;;;7.45;3.13;;;-0.50;99.90;;;;;;5044860;28;20098;-63
2023/01/28 09:32:42;;;;;;;7.97;2.88;;;-0.40;99.90;;;;;;5044204;28;20051;-62
2023/01/28 09:35:08;;;;;;;4.32;2.70;;;-0.40;99.90;;;;;;5046836;28;20818;-63
2023/01/28 09:37:34;;;;;;;6.43;2.97;;;-0.30;99.90;;;;;;5047707;28;20094;-63
2023/01/28 09:40:00;;;;;;;5.07;2.88;;;-0.30;99.90;;;;;;5049548;28;20049;-62
2023/01/28 09:43:02;;;;;;;6.13;2.92;;;-0.40;99.90;;;;;;5047966;28;20041;-63
2023/01/28 09:45:37;;;;;;;5.75;2.75;;;-0.40;99.90;;;;;;5047135;28;20493;-64
2023/01/28 09:48:09;;;;;;;5.10;2.25;;;-0.50;99.90;;;;;;5044768;28;20050;-63
2023/01/28 09:50:39;;;;;;;8.38;3.15;;;-0.40;99.90;;;;;;5044998;28;20033;-64
2023/01/28 09:53:32;;;;;;;10.48;3.55;;;-0.30;99.90;;;;;;5077129;28;20055;-64
2023/01/28 09:56:00;;;;;;;6.35;2.80;;;-0.30;99.90;;;;;;5045119;28;20048;-63
2023/01/28 09:58:26;;;;;;;4.20;2.88;;;-0.30;99.90;;;;;;5046905;28;20819;-64
2023/01/28 10:01:24;;;;;;;4.20;2.85;;;-0.20;99.90;;;;;;5045289;28;20053;-63
2023/01/28 10:04:21;;;;;;;5.10;2.75;;;-0.50;99.90;;;;;;5061894;28;20033;-65
2023/01/28 10:07:10;;;;;;;7.65;2.97;;;-0.50;99.90;;;;;;5048070;28;20040;-64
2023/01/28 10:09:52;;;;;;;5.90;3.22;;;-0.60;99.90;;;;;;5046423;28;20079;-64
2023/01/28 10:12:27;;;;;;;3.83;2.40;;;-0.70;99.90;;;;;;5048577;28;20050;-64
2023/01/28 10:15:21;;;;;;;5.10;3.10;;;-0.80;99.90;;;;;;5061861;28;20041;-65
2023/01/28 10:17:51;;;;;;;8.48;3.75;;;-0.60;99.90;;;;;;5048044;28;20098;-63
2023/01/28 10:20:47;;;;;;;6.60;4.35;;;-0.40;99.90;;;;;;5047166;28;20037;-64
2023/01/28 10:23:16;;;;;;;5.97;3.95;;;-0.40;99.90;;;;;;5043467;28;20049;-64
2023/01/28 10:25:47;;;;;;;9.48;4.43;;;-0.30;99.90;;;;;;5046768;28;20047;-63
2023/01/28 10:28:22;;;;;;;5.47;4.00;;;-0.20;99.90;;;;;;5044485;28;20036;-64
2023/01/28 10:30:49;;;;;;;6.18;3.85;;;0.00;99.90;;;;;;5046349;28;20041;-64
2023/01/28 10:33:36;;;;;;;6.10;3.78;;;0.00;99.90;;;;;;5045763;28;20131;-64
2023/01/28 10:36:02;;;;;;;7.68;3.70;;;-0.10;99.90;;;;;;5074530;28;20115;-65
2023/01/28 10:38:30;;;;;;;16.30;4.85;;;-0.30;99.90;;;;;;5045576;28;20616;-63
2023/01/28 10:41:01;;;;;;;13.43;5.90;;;-0.30;99.90;;;;;;5046828;28;20111;-63
2023/01/28 10:43:32;;;;;;;8.27;5.32;;;-0.50;99.90;;;;;;5044215;28;20041;-64
2023/01/28 10:46:01;;;;;;;8.35;5.35;;;-0.50;99.90;;;;;;5044634;28;20033;-64
2023/01/28 10:48:54;;;;;;;11.25;6.20;;;-0.50;99.90;;;;;;5046797;28;20053;-64
2023/01/28 10:51:34;;;;;;;9.95;5.97;;;-0.40;99.90;;;;;;5043590;28;20674;-63
2023/01/28 10:53:59;;;;;;;9.95;6.13;;;-0.30;99.90;;;;;;5043306;28;20047;-64
2023/01/28 10:56:34;;;;;;;8.25;4.55;;;-0.30;99.90;;;;;;5044748;28;20564;-64
2023/01/28 10:59:17;;;;;;;11.32;5.28;;;-0.10;99.90;;;;;;5043586;28;20040;-63
2023/01/28 11:01:49;;;;;;;7.10;4.63;;;-0.20;99.90;;;;;;5043807;28;20040;-64
2023/01/28 11:04:26;;;;;;;8.63;5.55;;;-0.20;99.90;;;;;;5044187;28;20033;-64
2023/01/28 11:07:02;;;;;;;7.68;4.80;;;-0.20;99.90;;;;;;5045033;28;20052;-64
2023/01/28 11:09:35;;;;;;;;;;;-0.30;99.90;;;;;;5043751;28;20068;-63
2023/01/28 11:12:29;;;;;;;7.75;4.97;;;-0.30;99.90;;;;;;5045968;28;19924;-64
2023/01/28 11:15:05;;;;;;;8.70;5.32;;;-0.30;99.90;;;;;;5045800;28;20041;-64
2023/01/28 11:17:34;;;;;;;13.77;7.35;;;-0.40;99.90;;;;;;5046707;28;20052;-64
2023/01/28 11:20:12;;;;;;;9.02;6.20;;;-0.50;99.90;;;;;;5043906;28;20102;-64
2023/01/28 11:22:41;;;;;;;8.50;5.13;;;-0.60;99.90;;;;;;5044918;28;20092;-64
2023/01/28 11:25:34;;;;;;;13.32;5.57;;;-0.50;99.90;;;;;;5046030;28;20513;-65
2023/01/28 11:28:13;;;;;;;11.32;6.00;;;-0.40;99.90;;;;;;5046170;28;20049;-64
2023/01/28 11:30:40;;;;;;;8.95;5.60;;;-0.50;99.90;;;;;;5044731;28;20068;-64
2023/01/28 11:33:11;;;;;;;6.80;4.68;;;-0.60;99.90;;;;;;5045447;28;20036;-63
2023/01/28 11:35:37;;;;;;;8.27;5.22;;;-0.60;99.90;;;;;;5042700;28;20025;-63
2023/01/28 11:38:17;;;;;;;8.68;5.20;;;-0.70;99.90;;;;;;5046909;28;20416;-61
2023/01/28 11:40:56;;;;;;;9.50;5.78;;;-0.60;99.90;;;;;;5042319;28;20519;-64
2023/01/28 11:43:24;;;;;;;9.00;5.35;;;-0.50;99.90;;;;;;5045938;28;20531;-62
2023/01/28 11:46:07;;;;;;;9.30;4.97;;;-0.30;99.90;;;;;;5044815;28;20099;-63
2023/01/28 11:48:33;;;;;;;8.82;5.40;;;-0.20;99.90;;;;;;5046440;28;20048;-63
2023/01/28 11:51:03;;;;;;;7.43;5.10;;;-0.30;99.90;;;;;;5045758;28;20049;-63
2023/01/28 11:53:45;;;;;;;11.20;5.50;;;-0.20;99.90;;;;;;5042521;28;20055;-63
2023/01/28 11:56:43;;;;;;;5.75;4.22;;;0.00;99.90;;;;;;5045335;28;20121;-62
2023/01/28 11:59:18;;;;;;;;;;;0.10;99.90;;;;;;5046194;28;20079;-63
2023/01/28 12:02:24;;;;;;;6.78;4.68;;;0.00;99.90;;;;;;5042361;28;20015;-62
2023/01/28 12:05:16;;;;;;;6.35;4.72;;;0.00;99.90;;;;;;5043768;28;20037;-62
2023/01/28 12:07:55;;;;;;;8.57;5.68;;;-0.20;99.90;;;;;;5043228;28;20053;-62
2023/01/28 12:10:33;;;;;;;9.05;5.82;;;-0.30;99.90;;;;;;5044977;28;20072;-63
2023/01/28 12:13:23;;;;;;;8.38;5.45;;;-0.40;99.90;;;;;;5046127;28;20037;-62
2023/01/28 12:16:20;;;;;;;9.57;5.85;;;-0.30;99.90;;;;;;5045503;28;20116;-62
2023/01/28 12:18:46;;;;;;;;;;;-0.20;99.90;;;;;;5048686;28;20038;-63
2023/01/28 12:21:24;;;;;;;8.50;4.40;;;-0.10;99.90;;;;;;5047570;28;19925;-64
2023/01/28 12:24:19;;;;;;;9.38;5.72;;;-0.10;99.90;;;;;;5046030;28;20099;-63
2023/01/28 12:27:02;;;;;;;9.10;5.40;;;-0.10;99.90;;;;;;5078774;28;20064;-63
2023/01/28 12:30:04;;;;;;;11.63;5.97;;;-0.30;99.90;;;;;;5047316;28;20049;-63
2023/01/28 12:32:58;;;;;;;11.15;5.60;;;-0.30;99.90;;;;;;5047340;28;20069;-63
2023/01/28 12:35:31;;;;;;;13.27;6.60;;;-0.20;99.90;;;;;;5049176;28;20037;-63
2023/01/28 12:38:16;;;;;;;8.52;5.15;;;-0.10;99.90;;;;;;5064500;28;20037;-63
2023/01/28 12:41:05;;;;;;;9.77;5.55;;;-0.10;99.90;;;;;;5048582;28;20497;-64
2023/01/28 12:43:37;;;;;;;8.57;5.82;;;0.10;99.90;;;;;;5048384;28;20115;-63
2023/01/28 12:46:17;;;;;;;12.27;5.70;;;0.10;99.90;;;;;;5048392;28;20049;-63
2023/01/28 12:49:13;;;;;;;10.38;5.28;;;0.10;99.90;;;;;;5048777;28;20033;-63
2023/01/28 12:52:04;;;;;;;11.32;5.32;;;0.10;99.90;;;;;;5040038;28;20051;-63
2023/01/28 12:54:49;;;;;;;10.25;5.50;;;0.10;99.90;;;;;;5047707;28;20540;-63
2023/01/28 12:57:27;;;;;;;8.57;6.00;;;0.00;99.90;;;;;;5048194;28;20052;-63
2023/01/28 13:00:11;;;;;;;10.63;5.70;;;-0.10;99.90;;;;;;5078379;28;20040;-64
2023/01/28 13:02:41;;;;;;;10.43;5.70;;;0.00;99.90;;;;;;5045022;28;21029;-63
2023/01/28 13:05:15;;;;;;;8.30;5.70;;;-0.10;99.90;;;;;;5045340;28;20120;-63
2023/01/28 13:07:56;;;;;;;9.07;5.85;;;0.00;99.90;;;;;;5046855;28;20078;-63
2023/01/28 13:10:34;;;;;;;8.52;5.40;;;0.00;99.90;;;;;;5043294;28;20057;-65
2023/01/28 13:13:00;;;;;;;8.10;5.22;;;0.10;99.90;;;;;;5044793;28;20044;-63
2023/01/28 13:15:25;;;;;;;9.68;5.55;;;0.10;99.90;;;;;;5075081;28;20037;-64
2023/01/28 13:18:00;;;;;;;8.60;5.63;;;0.10;99.90;;;;;;5043704;28;20033;-63
2023/01/28 13:20:49;;;;;;;11.52;6.13;;;0.10;99.90;;;;;;5043539;28;20041;-65
2023/01/28 13:23:45;;;;;;;8.15;5.50;;;0.00;99.90;;;;;;5043434;28;20041;-64
2023/01/28 13:26:39;;;;;;;10.43;5.80;;;0.10;99.90;;;;;;5043468;28;20057;-65
2023/01/28 13:29:18;;;;;;;9.50;5.30;;;0.10;99.90;;;;;;5031919;28;20055;-65
2023/01/28 13:31:47;;;;;;;8.63;5.20;;;0.20;99.90;;;;;;5040967;28;20041;-65
2023/01/28 13:34:42;;;;;;;6.93;4.95;;;0.20;99.90;;;;;;5041899;28;20041;-65
2023/01/28 13:37:35;;;;;;;8.60;5.00;;;0.20;99.90;;;;;;5041829;28;20178;-64
2023/01/28 13:40:13;;;;;;;9.85;4.78;;;-0.10;99.90;;;;;;5041737;28;20457;-65
2023/01/28 13:42:40;;;;;;;9.18;5.75;;;-0.10;99.90;;;;;;5046847;28;20040;-64